Time;durP1;ratioP1;P1;durP2;ratioP2;P2;SDS_P1;SDS_P2;PMS_P1;PMS_P2;Temp;Humidity;BMP_temperature;BMP_pressure;BME280_temperature;BME280_humidity;BME280_pressure;Samples;Min_cycle;Max_cycle;Signal;HPM_P1;HPM_P2
2021/06/30 00:01:03;;;;;;;;;10.50;9.75;;;;;19.25;63.87;101007.22;4925240;28;45374;-73
2021/06/30 00:03:29;;;;;;;;;11.25;10.00;;;;;19.20;64.02;100993.97;4925182;28;45371;-73
2021/06/30 00:05:54;;;;;;;;;7.75;7.75;;;;;19.22;64.06;100993.88;4925363;28;45518;-74
2021/06/30 00:08:19;;;;;;;;;10.25;9.75;;;;;19.24;64.44;101009.06;4924824;28;45349;-74
2021/06/30 00:10:46;;;;;;;;;11.00;8.50;;;;;19.21;64.38;101001.13;4924886;28;46195;-74
2021/06/30 00:13:11;;;;;;;;;10.75;9.25;;;;;19.06;64.46;100978.63;4924656;28;45413;-73
2021/06/30 00:15:39;;;;;;;;;10.25;7.50;;;;;19.12;64.37;100988.19;4925258;28;45311;-73
2021/06/30 00:18:04;;;;;;;;;7.25;7.25;;;;;19.12;64.55;100987.31;4924572;28;45805;-74
2021/06/30 00:20:30;;;;;;;;;8.00;8.00;;;;;19.18;64.16;101003.16;4924875;28;46618;-74
2021/06/30 00:22:56;;;;;;;;;7.00;7.00;;;;;19.06;64.66;100977.75;4935321;28;45745;-73
2021/06/30 00:25:21;;;;;;;;;8.75;7.25;;;;;19.19;64.07;100997.63;4917246;28;45225;-74
2021/06/30 00:27:49;;;;;;;;;8.25;8.00;;;;;19.14;64.30;100997.06;4923318;28;45466;-74
2021/06/30 00:30:15;;;;;;;;;6.50;6.50;;;;;19.10;64.30;100981.16;4924724;28;45478;-74
2021/06/30 00:32:41;;;;;;;;;9.25;8.00;;;;;19.16;64.40;100994.25;4924539;28;45568;-74
2021/06/30 00:35:08;;;;;;;;;6.25;6.25;;;;;19.13;64.75;100989.03;4924946;28;45342;-73
2021/06/30 00:37:33;;;;;;;;;6.75;6.50;;;;;19.09;64.29;100996.50;4924677;28;45483;-74
2021/06/30 00:39:59;;;;;;;;;7.25;6.25;;;;;19.08;64.66;100989.34;4923219;28;47110;-73
2021/06/30 00:42:29;;;;;;;;;5.75;4.75;;;;;19.05;64.80;100984.13;4924287;28;45311;-74
2021/06/30 00:44:54;;;;;;;;;5.25;3.25;;;;;19.05;64.36;100981.44;4924611;28;45275;-74
2021/06/30 00:47:21;;;;;;;;;5.50;5.50;;;;;18.98;64.89;100977.38;4924588;28;45469;-74
2021/06/30 00:49:46;;;;;;;;;5.00;5.00;;;;;18.96;64.92;100984.72;4939064;28;47494;-74
2021/06/30 00:52:12;;;;;;;;;4.00;4.00;;;;;19.02;64.83;100993.31;4924627;28;45251;-74
2021/06/30 00:54:37;;;;;;;;;7.00;6.00;;;;;19.02;64.89;100998.72;4936397;28;45401;-73
2021/06/30 00:57:03;;;;;;;;;6.75;6.75;;;;;18.98;64.70;100991.78;4916697;28;45558;-74
2021/06/30 00:59:28;;;;;;;;;4.25;4.00;;;;;18.98;64.92;100989.06;4927272;28;45375;-74
2021/06/30 01:01:54;;;;;;;;;3.75;3.50;;;;;18.98;64.71;101001.75;4924388;28;45223;-73
2021/06/30 01:04:20;;;;;;;;;6.50;4.00;;;;;18.94;64.80;100995.63;4924559;28;45220;-73
2021/06/30 01:06:45;;;;;;;;;3.75;3.75;;;;;18.92;64.87;100991.28;4924157;28;45289;-73
2021/06/30 01:09:11;;;;;;;;;5.50;4.25;;;;;18.88;65.00;100990.63;4924068;28;46251;-74
2021/06/30 01:11:37;;;;;;;;;5.00;5.00;;;;;18.91;65.36;100994.94;4924063;28;45140;-73
2021/06/30 01:14:02;;;;;;;;;6.00;6.00;;;;;18.90;65.50;100993.25;4935698;28;45222;-73
2021/06/30 01:16:28;;;;;;;;;3.75;3.75;;;;;18.91;64.88;100986.84;4921845;28;45558;-74
2021/06/30 01:18:53;;;;;;;;;5.50;5.50;;;;;18.92;65.51;100994.00;4924021;28;45428;-74
2021/06/30 01:21:18;;;;;;;;;4.75;4.00;;;;;18.78;65.45;100978.63;4924007;28;45381;-74
2021/06/30 01:23:45;;;;;;;;;8.25;5.75;;;;;18.78;65.43;100975.91;4936825;28;45790;-74
2021/06/30 01:26:12;;;;;;;;;6.00;4.75;;;;;18.86;65.93;100992.53;4921417;28;45447;-73
2021/06/30 01:28:38;;;;;;;;;5.50;5.00;;;;;18.70;65.68;100971.84;4923689;28;45506;-74
2021/06/30 01:31:06;;;;;;;;;6.00;6.00;;;;;18.76;65.47;100975.13;4923768;28;45216;-74
2021/06/30 01:33:32;;;;;;;;;5.00;4.50;;;;;18.69;65.82;100970.13;4923913;28;45206;-74
2021/06/30 01:35:58;;;;;;;;;4.25;4.25;;;;;18.74;65.77;100987.88;4922544;28;45248;-73
2021/06/30 01:38:26;;;;;;;;;4.50;4.00;;;;;18.66;66.21;100973.00;4923578;28;45477;-74
2021/06/30 01:40:54;;;;;;;;;6.25;4.75;;;;;18.54;66.27;100953.97;4938138;28;45994;-74
2021/06/30 01:43:20;;;;;;;;;8.00;6.50;;;;;18.52;65.80;100946.81;4923560;28;45221;-74
2021/06/30 01:45:45;;;;;;;;;5.00;4.50;;;;;18.73;66.27;100981.59;4923992;28;45354;-73
2021/06/30 01:48:11;;;;;;;;;7.50;5.25;;;;;18.74;66.11;100991.44;4923559;28;45368;-73
2021/06/30 01:50:38;;;;;;;;;4.50;4.25;;;;;18.33;66.38;100922.78;4923620;28;45206;-74
2021/06/30 01:53:05;;;;;;;;;7.50;4.00;;;;;18.58;66.40;100972.63;4923620;28;45367;-74
2021/06/30 01:55:32;;;;;;;;;4.50;4.50;;;;;18.51;66.53;100957.75;4938234;28;45509;-74
2021/06/30 01:57:57;;;;;;;;;5.00;5.00;;;;;18.47;66.88;100954.34;4935058;28;48165;-73
2021/06/30 02:00:23;;;;;;;;;5.00;4.00;;;;;18.39;66.90;100945.00;4923715;28;45484;-74
2021/06/30 02:02:50;;;;;;;;;5.00;5.00;;;;;18.38;66.55;100949.53;4935137;28;45326;-74
2021/06/30 02:05:18;;;;;;;;;6.25;4.75;;;;;18.51;66.40;100961.31;4916264;28;45605;-74
2021/06/30 02:07:58;;;;;;;;;6.00;6.00;;;;;18.33;66.29;100940.84;4916778;28;45554;-74
2021/06/30 02:10:25;;;;;;;;;6.00;4.50;;;;;18.44;66.59;100953.69;4923172;28;45156;-74
2021/06/30 02:12:51;;;;;;;;;5.00;5.00;;;;;18.67;66.71;100996.38;4923180;28;45325;-74
2021/06/30 02:15:25;;;;;;;;;5.50;5.00;;;;;18.49;66.67;100963.25;4923436;28;45303;-74
2021/06/30 02:17:51;;;;;;;;;6.00;6.00;;;;;18.33;66.54;100946.25;4922820;28;45563;-74
2021/06/30 02:20:18;;;;;;;;;6.00;5.75;;;;;18.41;66.85;100954.75;4934767;28;45204;-74
2021/06/30 02:22:44;;;;;;;;;5.00;5.00;;;;;18.27;66.44;100933.97;4921441;28;45498;-74
2021/06/30 02:25:12;;;;;;;;;5.25;5.25;;;;;18.52;66.41;100984.66;4923102;28;45555;-74
2021/06/30 02:27:39;;;;;;;;;4.75;4.00;;;;;18.41;66.85;100959.28;4922763;28;45442;-74
2021/06/30 02:30:08;;;;;;;;;5.50;5.50;;;;;18.24;67.14;100941.41;4922962;28;45489;-74
2021/06/30 02:32:33;;;;;;;;;7.25;6.00;;;;;18.36;67.06;100967.69;4937930;28;45491;-73
2021/06/30 02:34:59;;;;;;;;;7.00;5.75;;;;;18.46;66.61;100985.06;4921608;28;45644;-74
2021/06/30 02:37:24;;;;;;;;;8.00;6.50;;;;;18.33;66.81;100970.56;4921465;28;47854;-74
2021/06/30 02:39:49;;;;;;;;;4.50;4.50;;;;;18.43;66.99;100987.97;4934309;28;45363;-74
2021/06/30 02:42:15;;;;;;;;;8.25;6.00;;;;;18.43;67.50;100993.34;4919769;28;45745;-74
2021/06/30 02:44:41;;;;;;;;;5.75;5.75;;;;;18.34;67.01;100980.41;4922664;28;45388;-74
2021/06/30 02:47:06;;;;;;;;;7.25;6.25;;;;;18.29;67.49;100971.69;4921205;28;47359;-73
2021/06/30 02:49:32;;;;;;;;;9.75;7.25;;;;;18.29;67.22;100971.69;4922801;28;45389;-73
2021/06/30 02:51:57;;;;;;;;;6.00;6.00;;;;;18.21;67.45;100964.09;4921432;28;45476;-74
2021/06/30 02:54:23;;;;;;;;;9.25;7.25;;;;;18.43;66.97;101008.72;4922723;28;45357;-74
2021/06/30 02:56:48;;;;;;;;;9.75;9.00;;;;;18.08;66.62;100946.88;4922481;28;46345;-74
2021/06/30 02:59:13;;;;;;;;;11.75;10.75;;;;;18.14;66.66;100960.88;4925322;28;45917;-74
2021/06/30 03:01:39;;;;;;;;;9.50;8.50;;;;;18.17;66.66;100964.34;4922696;28;45323;-74
2021/06/30 03:04:04;;;;;;;;;11.25;10.25;;;;;18.19;66.98;100968.69;4922525;28;45338;-74
2021/06/30 03:06:30;;;;;;;;;8.00;7.50;;;;;18.25;66.34;100984.53;4908433;28;48203;-73
2021/06/30 03:08:55;;;;;;;;;12.00;10.50;;;;;18.04;66.60;100948.00;4926428;28;45748;-74
2021/06/30 03:11:20;;;;;;;;;7.25;6.75;;;;;18.19;66.37;100970.53;4919149;28;45148;-74
2021/06/30 03:13:46;;;;;;;;;10.25;9.50;;;;;18.23;66.63;100983.75;4921160;28;45950;-74
2021/06/30 03:16:14;;;;;;;;;9.50;9.50;;;;;18.45;66.35;101021.16;4924008;28;47037;-74
2021/06/30 03:18:40;;;;;;;;;8.00;7.25;;;;;18.38;66.37;101014.41;4926805;28;46018;-74
2021/06/30 03:21:05;;;;;;;;;11.00;10.50;;;;;18.23;66.72;100994.56;4934561;28;45357;-73
2021/06/30 03:23:31;;;;;;;;;9.00;8.50;;;;;18.21;66.18;100993.81;4927495;28;45422;-74
2021/06/30 03:25:57;;;;;;;;;7.75;7.25;;;;;18.26;66.75;101004.31;4919593;28;45442;-73
2021/06/30 03:28:22;;;;;;;;;9.00;9.00;;;;;18.05;66.62;100971.38;4933625;28;45924;-74
2021/06/30 03:30:48;;;;;;;;;9.75;9.75;;;;;18.09;66.47;100978.31;4916216;28;45321;-73
2021/06/30 03:33:13;;;;;;;;;10.75;7.75;;;;;18.08;66.83;100977.47;4913257;28;45241;-74
2021/06/30 03:35:39;;;;;;;;;10.00;10.00;;;;;17.98;66.25;100968.16;4922069;28;45235;-74
2021/06/30 03:38:04;;;;;;;;;10.25;8.75;;;;;17.95;66.56;100958.41;4922257;28;45253;-74
2021/06/30 03:40:30;;;;;;;;;11.75;10.75;;;;;18.30;66.04;101017.56;4921732;28;45192;-74
2021/06/30 03:42:55;;;;;;;;;10.00;8.25;;;;;17.89;65.98;100958.78;4936490;28;45870;-73
2021/06/30 03:45:21;;;;;;;;;8.00;8.00;;;;;18.08;66.16;100990.09;4909080;28;46104;-74
2021/06/30 03:47:46;;;;;;;;;9.25;8.50;;;;;18.18;66.40;101007.50;4910296;28;45412;-73
2021/06/30 03:50:12;;;;;;;;;7.50;5.75;;;;;18.09;66.67;101003.53;4900735;29;45673;-74
2021/06/30 03:52:37;;;;;;;;;11.00;9.50;;;;;18.15;66.07;101013.06;4927408;28;45644;-74
2021/06/30 03:55:03;;;;;;;;;11.50;8.75;;;;;17.98;66.24;100973.56;4914356;28;45402;-73
2021/06/30 03:57:30;;;;;;;;;11.50;11.50;;;;;18.11;65.73;100998.88;4908313;28;45546;-74
2021/06/30 03:59:56;;;;;;;;;13.00;10.75;;;;;17.93;66.33;100971.13;4923533;28;45556;-73
2021/06/30 04:02:21;;;;;;;;;12.00;11.75;;;;;18.12;66.35;100999.75;4917013;28;45613;-73
2021/06/30 04:04:46;;;;;;;;;14.00;13.00;;;;;18.08;66.22;101001.78;4910232;28;45336;-73
2021/06/30 04:07:12;;;;;;;;;16.25;14.75;;;;;17.86;66.00;100960.75;4916938;28;45470;-73
2021/06/30 04:09:37;;;;;;;;;15.25;13.25;;;;;18.06;66.31;100994.69;4936132;28;45443;-73
2021/06/30 04:12:03;;;;;;;;;13.75;12.00;;;;;18.12;66.19;101000.59;4921475;28;45525;-73
2021/06/30 04:14:28;;;;;;;;;11.25;10.25;;;;;18.09;66.12;100992.72;4912736;28;46197;-73
2021/06/30 04:16:54;;;;;;;;;11.75;11.75;;;;;18.00;66.26;100984.28;4936115;28;45848;-74
2021/06/30 04:19:21;;;;;;;;;13.25;12.50;;;;;18.03;66.28;100993.06;4910694;28;45533;-73
2021/06/30 04:21:46;;;;;;;;;12.00;9.00;;;;;18.23;66.54;101036.94;4920391;28;45526;-74
2021/06/30 04:24:11;;;;;;;;;13.75;11.00;;;;;17.96;66.39;100980.91;4922594;28;45484;-73
2021/06/30 04:26:37;;;;;;;;;13.00;10.00;;;;;18.05;66.61;101007.34;4919733;28;45168;-73
2021/06/30 04:29:04;;;;;;;;;6.75;6.75;;;;;17.95;66.86;100987.25;4904295;28;45208;-73
2021/06/30 04:31:30;;;;;;;;;11.50;10.50;;;;;18.02;66.69;101004.81;4905645;28;45302;-73
2021/06/30 04:33:56;;;;;;;;;14.25;11.00;;;;;18.22;66.57;101035.19;4934100;28;48251;-74
2021/06/30 04:36:21;;;;;;;;;12.25;11.25;;;;;17.95;66.36;100993.50;4924604;28;45484;-74
2021/06/30 04:38:47;;;;;;;;;9.00;8.75;;;;;18.01;66.48;101004.91;4923288;28;45916;-74
2021/06/30 04:41:13;;;;;;;;;12.00;11.75;;;;;17.96;66.78;101006.06;4905118;28;45472;-73
2021/06/30 04:43:42;;;;;;;;;11.00;9.50;;;;;18.17;66.66;101037.31;4907865;28;45549;-73
2021/06/30 04:46:07;;;;;;;;;9.75;8.50;;;;;17.94;66.95;101004.41;4923106;28;45427;-73
2021/06/30 04:48:34;;;;;;;;;12.75;10.50;;;;;17.91;66.75;101004.63;4924538;28;45311;-73
2021/06/30 04:51:02;;;;;;;;;9.75;7.25;;;;;18.03;66.65;101019.22;4938967;28;45508;-73
2021/06/30 04:53:28;;;;;;;;;9.00;8.50;;;;;18.09;66.83;101038.63;4914805;28;46430;-73
2021/06/30 04:55:54;;;;;;;;;9.50;9.25;;;;;18.16;66.61;101041.84;4919926;28;45930;-73
2021/06/30 04:58:20;;;;;;;;;10.25;8.50;;;;;17.74;66.19;100976.75;4932964;28;45514;-73
2021/06/30 05:00:45;;;;;;;;;7.00;7.00;;;;;18.02;66.48;101026.44;4927068;28;45502;-73
2021/06/30 05:03:11;;;;;;;;;8.50;8.50;;;;;18.16;66.63;101047.25;4924214;28;45446;-74
2021/06/30 05:05:36;;;;;;;;;9.00;9.00;;;;;18.05;66.48;101038.91;4923993;28;45175;-73
2021/06/30 05:08:02;;;;;;;;;6.75;6.75;;;;;17.82;66.98;101005.97;4939083;28;45401;-73
2021/06/30 05:10:28;;;;;;;;;10.00;7.75;;;;;18.08;66.98;101049.53;4922719;28;45272;-73
2021/06/30 05:12:54;;;;;;;;;6.50;6.50;;;;;17.63;66.54;100981.88;4923820;28;45509;-74
2021/06/30 05:15:19;;;;;;;;;7.25;7.25;;;;;17.86;66.96;101015.66;4938658;28;45677;-73
2021/06/30 05:17:45;;;;;;;;;8.25;6.75;;;;;17.87;67.05;101017.41;4924108;28;45390;-73
2021/06/30 05:20:11;;;;;;;;;5.00;5.00;;;;;17.76;66.62;101000.94;4923850;28;45369;-73
2021/06/30 05:22:36;;;;;;;;;7.25;6.75;;;;;17.71;66.70;100986.84;4942392;28;47430;-73
2021/06/30 05:25:02;;;;;;;;;8.25;8.25;;;;;17.82;67.04;101002.41;4926223;28;45297;-73
2021/06/30 05:27:30;;;;;;;;;9.00;6.00;;;;;18.08;66.59;101055.78;4924001;28;45365;-73
2021/06/30 05:29:55;;;;;;;;;6.50;5.50;;;;;18.08;67.10;101053.09;4923877;28;45186;-74
2021/06/30 05:32:23;;;;;;;;;7.00;6.50;;;;;17.91;66.79;101032.47;4934331;28;47289;-74
2021/06/30 05:34:49;;;;;;;;;7.00;6.75;;;;;18.11;66.45;101066.44;4922002;28;45584;-71
2021/06/30 05:37:14;;;;;;;;;4.75;4.00;;;;;17.95;66.28;101047.53;4923913;28;45397;-71
2021/06/30 05:39:39;;;;;;;;;6.00;5.00;;;;;17.85;66.62;101024.69;4922338;28;45688;-71
2021/06/30 05:42:05;;;;;;;;;6.00;6.00;;;;;17.93;66.53;101040.50;4922170;28;47449;-70
2021/06/30 05:44:30;;;;;;;;;7.25;5.25;;;;;17.80;66.43;101010.59;4923204;28;45335;-70
2021/06/30 05:46:56;;;;;;;;;8.00;5.50;;;;;17.85;66.44;101029.22;4913231;28;45423;-70
2021/06/30 05:49:21;;;;;;;;;6.50;6.50;;;;;18.05;66.78;101069.47;4919844;28;45350;-71
2021/06/30 05:51:47;;;;;;;;;5.75;5.75;;;;;17.73;66.88;101017.31;4935177;28;48176;-71
2021/06/30 05:54:12;;;;;;;;;4.75;4.75;;;;;18.09;67.06;101079.16;4919441;28;45429;-71
2021/06/30 05:56:38;;;;;;;;;6.75;5.75;;;;;17.72;67.03;101008.34;4923723;28;45303;-71
2021/06/30 05:59:05;;;;;;;;;4.50;4.50;;;;;17.87;66.94;101049.81;4936229;28;45549;-70
2021/06/30 06:01:31;;;;;;;;;5.75;5.75;;;;;18.05;66.96;101082.97;4920062;28;46588;-70
2021/06/30 06:03:56;;;;;;;;;5.00;4.00;;;;;17.83;66.57;101050.94;4938028;28;45275;-70
2021/06/30 06:06:22;;;;;;;;;5.50;4.25;;;;;17.86;66.96;101050.75;4921913;28;45807;-71
2021/06/30 06:08:47;;;;;;;;;7.75;6.00;;;;;17.86;66.57;101057.97;4922026;28;46133;-70
2021/06/30 06:11:13;;;;;;;;;6.00;6.00;;;;;17.77;66.96;101046.75;4922360;28;45647;-71
2021/06/30 06:13:45;;;;;;;;;10.50;9.50;;;;;17.69;67.38;101032.84;4923014;28;45355;-71
2021/06/30 06:16:14;;;;;;;;;5.00;5.00;;;;;18.02;67.41;101093.97;4933290;28;45342;-71
2021/06/30 06:18:40;;;;;;;;;8.75;8.75;;;;;17.98;67.18;101086.16;4922329;28;45517;-70
2021/06/30 06:21:06;;;;;;;;;7.75;6.00;;;;;17.99;67.62;101096.84;4923222;28;46180;-71
2021/06/30 06:23:31;;;;;;;;;6.00;6.00;;;;;17.83;67.81;101079.78;4933462;28;45366;-71
2021/06/30 06:26:08;;;;;;;;;6.25;6.25;;;;;17.93;67.65;101095.38;4937918;28;45445;-70
2021/06/30 06:28:37;;;;;;;;;4.00;2.75;;;;;17.70;66.99;101074.19;4924551;28;45448;-70
2021/06/30 06:31:04;;;;;;;;;5.50;5.50;;;;;17.77;67.08;101094.47;4921652;28;46850;-70
2021/06/30 06:33:30;;;;;;;;;9.00;7.50;;;;;17.69;67.52;101081.44;4922666;28;45488;-71
2021/06/30 06:35:56;;;;;;;;;5.00;5.00;;;;;17.60;67.42;101069.28;4921731;28;45251;-71
2021/06/30 06:38:23;;;;;;;;;8.00;8.00;;;;;17.58;68.05;101073.06;4934023;28;45584;-70
2021/06/30 06:40:52;;;;;;;;;7.00;6.00;;;;;17.70;68.49;101090.38;4934091;28;47062;-71
2021/06/30 06:43:20;;;;;;;;;8.00;7.75;;;;;17.66;67.90;101089.69;4933923;28;46470;-71
2021/06/30 06:45:46;;;;;;;;;5.75;5.50;;;;;17.59;68.02;101072.97;4937754;28;45365;-71
2021/06/30 06:48:11;;;;;;;;;8.00;5.25;;;;;17.74;67.81;101105.44;4921192;28;45705;-71
2021/06/30 06:50:37;;;;;;;;;9.25;6.00;;;;;17.38;67.94;101049.88;4928492;28;48032;-72
2021/06/30 06:53:02;;;;;;;;;6.25;6.25;;;;;17.38;68.13;101055.28;4935717;28;45444;-70
2021/06/30 06:55:28;;;;;;;;;7.50;6.50;;;;;17.63;67.93;101103.38;4920803;28;45437;-73
2021/06/30 06:57:58;;;;;;;;;9.25;7.25;;;;;17.70;68.33;101114.69;4941140;28;45342;-73
2021/06/30 07:00:26;;;;;;;;;7.50;6.50;;;;;17.34;67.77;101054.59;4916476;28;45496;-73
2021/06/30 07:02:56;;;;;;;;;7.00;7.00;;;;;17.77;68.14;101116.97;4901685;29;45439;-73
2021/06/30 07:05:24;;;;;;;;;8.75;6.25;;;;;17.41;68.31;101055.13;4913837;28;45340;-73
2021/06/30 07:07:50;;;;;;;;;6.25;6.25;;;;;17.66;68.44;101095.09;4906990;28;45437;-73
2021/06/30 07:10:17;;;;;;;;;6.75;6.75;;;;;17.64;68.62;101083.53;4906201;28;45614;-73
2021/06/30 07:12:43;;;;;;;;;7.25;5.75;;;;;17.61;67.92;101083.69;4921776;28;45338;-73
2021/06/30 07:15:10;;;;;;;;;6.00;6.00;;;;;17.51;68.42;101068.97;4922487;28;45539;-72
2021/06/30 07:17:37;;;;;;;;;9.50;8.50;;;;;17.79;69.03;101119.53;4936577;28;45850;-73
2021/06/30 07:20:13;;;;;;;;;6.50;6.50;;;;;17.52;68.43;101068.00;4921867;28;45486;-73
2021/06/30 07:22:39;;;;;;;;;10.50;9.75;;;;;17.54;68.58;101082.28;4925070;28;45682;-73
2021/06/30 07:25:05;;;;;;;;;7.50;7.50;;;;;17.51;68.48;101075.22;4937140;28;45545;-73
2021/06/30 07:27:30;;;;;;;;;6.75;6.25;;;;;17.85;68.65;101129.16;4924246;28;45341;-73
2021/06/30 07:29:56;;;;;;;;;8.50;8.50;;;;;17.55;68.83;101076.78;4910987;28;48145;-72
2021/06/30 07:32:21;;;;;;;;;8.00;7.50;;;;;17.82;68.51;101122.06;4919212;28;45482;-72
2021/06/30 07:34:46;;;;;;;;;7.00;6.00;;;;;17.63;68.50;101094.41;4925343;28;45686;-73
2021/06/30 07:37:12;;;;;;;;;7.50;7.00;;;;;17.86;68.71;101142.56;4901324;28;45521;-66
2021/06/30 07:39:37;;;;;;;;;10.00;6.75;;;;;17.86;68.03;101130.88;4902727;29;45366;-63
2021/06/30 07:42:04;;;;;;;;;8.00;7.50;;;;;17.86;68.34;101138.97;4902843;28;45478;-63
2021/06/30 07:44:29;;;;;;;;;8.00;7.25;;;;;17.88;68.34;101139.81;4902386;28;45522;-63
2021/06/30 07:46:55;;;;;;;;;7.25;7.25;;;;;17.89;68.19;101146.94;4911582;28;45606;-63
2021/06/30 07:49:20;;;;;;;;;9.75;8.00;;;;;17.93;68.27;101151.22;4921494;28;45172;-63
2021/06/30 07:51:46;;;;;;;;;10.50;9.75;;;;;17.95;69.06;101158.25;4921923;28;45386;-63
2021/06/30 07:54:11;;;;;;;;;7.50;7.50;;;;;17.89;68.17;101134.31;4921819;28;45360;-63
2021/06/30 07:56:37;;;;;;;;;9.75;9.75;;;;;17.96;68.19;101142.94;4925097;28;45327;-63
2021/06/30 07:59:08;;;;;;;;;10.50;9.25;;;;;18.00;68.08;101147.22;4935985;28;46892;-63
2021/06/30 08:01:33;;;;;;;;;8.50;7.00;;;;;18.02;68.38;101139.00;4924991;28;45540;-62
2021/06/30 08:03:59;;;;;;;;;8.00;8.00;;;;;18.08;68.15;101147.63;4924691;28;45323;-63
2021/06/30 08:06:25;;;;;;;;;8.25;8.25;;;;;18.08;68.15;101144.94;4924509;28;45177;-63
2021/06/30 08:08:50;;;;;;;;;8.25;8.25;;;;;18.11;67.87;101141.22;4924624;28;45365;-64
2021/06/30 08:11:17;;;;;;;;;9.75;9.25;;;;;18.11;68.10;101147.47;4924682;28;45232;-64
2021/06/30 08:13:43;;;;;;;;;8.50;7.00;;;;;18.09;68.25;101144.00;4924776;28;45263;-63
2021/06/30 08:16:08;;;;;;;;;10.00;10.00;;;;;18.11;68.11;101146.59;4924614;28;45343;-63
2021/06/30 08:18:34;;;;;;;;;6.75;6.75;;;;;18.03;68.56;101127.28;4924510;28;46261;-66
2021/06/30 08:21:00;;;;;;;;;9.75;9.75;;;;;18.10;68.24;101143.00;4924717;28;45491;-65
2021/06/30 08:23:25;;;;;;;;;7.00;7.00;;;;;18.15;67.73;101149.03;4930691;28;45385;-62
2021/06/30 08:25:50;;;;;;;;;10.00;9.75;;;;;18.17;67.58;101148.94;4924297;28;47685;-63
2021/06/30 08:28:22;;;;;;;;;11.25;10.50;;;;;18.14;68.09;101138.31;4924208;28;46106;-64
2021/06/30 08:30:48;;;;;;;;;10.50;8.25;;;;;18.12;68.41;101143.78;4924801;28;45485;-66
2021/06/30 08:33:13;;;;;;;;;10.50;9.75;;;;;18.20;67.73;101150.59;4920298;28;45285;-63
2021/06/30 08:35:39;;;;;;;;;12.50;10.00;;;;;18.21;67.85;101145.13;4923733;28;45548;-63
2021/06/30 08:38:04;;;;;;;;;9.25;9.25;;;;;18.23;66.58;101156.69;4924166;28;46298;-63
2021/06/30 08:40:31;;;;;;;;;7.25;7.00;;;;;18.21;67.23;101141.50;4923777;28;45368;-63
2021/06/30 08:42:57;;;;;;;;;15.00;10.25;;;;;18.23;66.92;101155.84;4924067;28;45437;-63
2021/06/30 08:45:22;;;;;;;;;8.75;8.75;;;;;18.24;66.65;101144.94;4935415;28;45757;-63
2021/06/30 08:47:48;;;;;;;;;8.00;8.00;;;;;18.28;66.42;101146.50;4923183;28;46100;-62
2021/06/30 08:50:14;;;;;;;;;12.25;8.50;;;;;18.30;66.26;101141.84;4923902;28;45434;-62
2021/06/30 08:52:39;;;;;;;;;12.00;10.00;;;;;18.30;67.13;101141.00;4924039;28;45296;-63
2021/06/30 08:55:07;;;;;;;;;13.50;12.00;;;;;18.29;66.43;101139.25;4924022;28;45399;-63
2021/06/30 08:57:33;;;;;;;;;10.50;9.50;;;;;18.34;65.89;101139.84;4925935;28;46131;-63
2021/06/30 08:59:59;;;;;;;;;11.00;10.50;;;;;18.33;66.46;101133.56;4933137;28;45346;-63
2021/06/30 09:02:25;;;;;;;;;17.75;14.25;;;;;18.38;66.75;101138.72;4923807;28;45533;-63
2021/06/30 09:04:59;;;;;;;;;11.50;10.50;;;;;18.41;66.95;101141.25;4923568;28;45351;-64
2021/06/30 09:07:25;;;;;;;;;10.50;8.50;;;;;18.36;66.45;101134.34;4922633;28;46101;-64
2021/06/30 09:09:50;;;;;;;;;13.00;10.00;;;;;18.46;66.53;101141.84;4923729;28;45323;-63
2021/06/30 09:12:17;;;;;;;;;9.00;9.00;;;;;18.46;66.79;101136.44;4923867;28;45718;-62
2021/06/30 09:14:42;;;;;;;;;7.00;7.00;;;;;18.50;66.31;101139.81;4935507;28;45712;-63
2021/06/30 09:19:46;;;;;;;;;10.25;9.50;;;;;18.60;65.93;101132.91;4923610;28;45486;-63
2021/06/30 09:22:12;;;;;;;;;7.00;7.00;;;;;18.62;65.88;101139.06;4939073;28;45374;-64
2021/06/30 09:24:38;;;;;;;;;11.00;9.25;;;;;18.65;65.28;101138.03;4928663;28;45404;-63
2021/06/30 09:27:04;;;;;;;;;11.50;10.50;;;;;18.64;65.81;101139.00;4922596;28;45382;-63
2021/06/30 09:29:29;;;;;;;;;10.00;9.00;;;;;18.65;65.28;101138.03;4923482;28;45352;-63
2021/06/30 09:31:55;;;;;;;;;12.50;12.50;;;;;18.67;65.17;101138.81;4923789;28;45418;-62
2021/06/30 09:34:28;;;;;;;;;9.00;8.50;;;;;18.72;64.98;101141.25;4923349;28;45327;-63
2021/06/30 09:37:02;;;;;;;;;9.50;8.25;;;;;18.71;65.46;101148.50;4923679;28;46330;-63
2021/06/30 09:39:29;;;;;;;;;11.00;10.50;;;;;18.73;65.64;101156.47;4922917;28;45247;-63
2021/06/30 09:42:02;;;;;;;;;7.00;7.00;;;;;18.74;65.06;101155.53;4923428;28;46874;-63
2021/06/30 09:44:27;;;;;;;;;9.50;9.50;;;;;18.76;65.13;101159.00;4923004;28;45819;-63
2021/06/30 09:46:57;;;;;;;;;11.25;11.25;;;;;18.76;65.37;101156.31;4937677;28;46813;-63
2021/06/30 09:49:23;;;;;;;;;10.00;10.00;;;;;18.74;65.88;101153.69;4923236;28;45405;-63
2021/06/30 09:52:09;;;;;;;;;10.50;10.00;;;;;18.75;65.48;101155.44;4923629;28;45355;-63
2021/06/30 09:54:37;;;;;;;;;13.00;11.50;;;;;18.73;65.38;101154.69;4923123;28;45528;-63
2021/06/30 09:57:08;;;;;;;;;10.75;9.25;;;;;18.77;66.01;101166.16;4923093;28;46448;-63
2021/06/30 09:59:53;;;;;;;;;10.25;9.25;;;;;18.79;65.77;101164.25;4933995;28;45586;-63
2021/06/30 10:02:22;;;;;;;;;10.00;9.75;;;;;18.81;65.22;101174.03;4922946;28;45478;-63
2021/06/30 10:04:59;;;;;;;;;12.25;11.25;;;;;18.83;65.04;101165.84;4922748;28;45291;-63
2021/06/30 10:07:30;;;;;;;;;13.25;11.75;;;;;18.85;65.03;101170.19;4922757;28;45346;-63
2021/06/30 10:09:55;;;;;;;;;8.75;8.75;;;;;18.87;65.24;101167.38;4922982;28;45564;-63
2021/06/30 10:12:26;;;;;;;;;11.33;9.33;;;;;18.88;64.24;101161.88;4921588;28;45360;-63
2021/06/30 10:14:53;;;;;;;;;14.25;10.50;;;;;18.90;64.46;101172.63;4921829;28;45617;-63
2021/06/30 10:17:19;;;;;;;;;13.00;10.75;;;;;18.93;64.02;101176.94;4921814;28;46063;-63
2021/06/30 10:19:47;;;;;;;;;14.50;12.50;;;;;18.91;64.72;101174.38;4909854;28;45296;-63
2021/06/30 10:22:13;;;;;;;;;11.50;10.25;;;;;18.94;64.23;101176.84;4921749;28;45763;-63
2021/06/30 10:24:42;;;;;;;;;12.75;11.75;;;;;18.94;63.75;101176.84;4920409;28;45394;-63
2021/06/30 10:27:11;;;;;;;;;7.00;7.00;;;;;18.93;63.56;101166.13;4922338;28;45672;-63
2021/06/30 10:29:39;;;;;;;;;11.75;11.75;;;;;18.98;63.27;101172.16;4922758;28;45164;-63
2021/06/30 10:32:04;;;;;;;;;10.00;8.25;;;;;19.00;63.20;101167.53;4922888;28;45350;-63
2021/06/30 10:34:35;;;;;;;;;9.75;7.50;;;;;19.01;64.15;101166.53;4922651;28;45315;-63
2021/06/30 10:37:00;;;;;;;;;12.25;9.00;;;;;19.03;64.26;101183.56;4922317;28;46938;-63
2021/06/30 10:39:34;;;;;;;;;10.00;10.00;;;;;19.03;63.98;101167.34;4922170;28;45296;-63
2021/06/30 10:42:13;;;;;;;;;9.75;8.50;;;;;19.03;63.56;101161.94;4922407;28;45477;-63
2021/06/30 10:44:46;;;;;;;;;7.75;6.25;;;;;19.07;64.06;101164.31;4921646;28;45430;-63
2021/06/30 10:47:33;;;;;;;;;8.75;8.75;;;;;19.09;63.47;101161.53;4922075;28;45314;-63
2021/06/30 10:50:19;;;;;;;;;11.25;11.25;;;;;19.11;63.60;101162.34;4922361;28;45448;-63
2021/06/30 10:52:55;;;;;;;;;9.25;9.00;;;;;19.11;63.84;101165.03;4922482;28;45266;-62
2021/06/30 10:55:33;;;;;;;;;11.50;9.50;;;;;19.12;63.25;101166.75;4909502;28;45606;-63
2021/06/30 10:58:14;;;;;;;;;9.00;8.50;;;;;19.13;63.33;101163.09;4925892;28;47149;-62
2021/06/30 11:00:41;;;;;;;;;13.25;11.00;;;;;19.16;63.46;101167.44;4922418;28;45589;-63
2021/06/30 11:03:28;;;;;;;;;13.25;12.25;;;;;19.18;63.38;101170.94;4922093;28;45353;-63
2021/06/30 11:06:23;;;;;;;;;13.00;9.75;;;;;19.18;63.02;101171.81;4916013;28;45473;-63
2021/06/30 11:08:56;;;;;;;;;10.50;10.50;;;;;19.14;62.65;101177.50;4915476;28;45456;-63
2021/06/30 11:11:33;;;;;;;;;11.25;8.75;;;;;19.14;63.02;101169.38;4921904;28;45536;-63
2021/06/30 11:14:05;;;;;;;;;10.50;10.50;;;;;19.06;62.87;101167.13;4921315;28;45486;-62
2021/06/30 11:16:36;;;;;;;;;12.25;11.25;;;;;19.11;63.24;101181.28;4921289;28;45488;-62
2021/06/30 11:19:06;;;;;;;;;12.75;11.75;;;;;19.12;62.87;101185.69;4921563;28;45276;-62
2021/06/30 11:21:47;;;;;;;;;14.00;10.50;;;;;19.12;63.27;101177.59;4921939;28;45446;-62
2021/06/30 11:24:44;;;;;;;;;13.50;11.00;;;;;19.14;62.78;101181.06;4918003;28;45420;-62